Westminster Station, VT (05159)

11:47 AM EDT on April 21, 2015 (GMT -0400)
Ramsay Hill Road | | Change Station
CLOSE
Current Station
Personal Weather Station
Location: Walpole, NH
Elevation: 950 ft
Nearby Weather Stations

Elev 950 ft 43.07 °N, 72.41 °W | Updated 6 minutes ago

Overcast
Overcast
49.7 °F
Feels Like 50 °F
N
2.0
Wind Variable Wind from SSW
Gusts 2.0 mph

Today
High -- | Low -- °F
--% Chance of Precip.
Yesterday
High -- | Low -- °F
Precip. -- in
5:58 AM 7:39 PM
Waxing Crescent, 11% visible
Pressure 29.60 in
Visibility 10.0 miles
Clouds Mostly Cloudy 1500 ft
Mostly Cloudy 2100 ft
Overcast 3000 ft
Windchill 50 °F
Dew Point 48 °F
Humidity 94%
Rainfall 0.35 in
Snow Depth Not available.
UV 3 out of 12
Pollen .50 out of 12
Air Quality Not available.
Flu Activity Regional
METAR KEEN 211535Z AUTO 20007KT 10SM BKN015 BKN021 OVC030 11/09 A2960 RMK AO1

More Conditions Fewer Conditions

Pressure 29.60 in
Visibility 10.0 miles
Clouds Mostly Cloudy 1500 ft
Mostly Cloudy 2100 ft
Overcast 3000 ft
Windchill 50 °F
Dew Point 48 °F
Humidity 94%
Rainfall 0.35 in
Snow Depth Not available.
UV 3 out of 12
Pollen .50 out of 12
Air Quality Not available.
Flu Activity Regional
METAR KEEN 211535Z AUTO 20007KT 10SM BKN015 BKN021 OVC030 11/09 A2960 RMK AO1

More Conditions Fewer Conditions

10-Day Weather Forecast

Almanac

Astronomy

Apr. 21, 2015 Rise Set
Actual Time
Civil Twilight
Nautical Twilight
Astronomical Twilight
Moon
Length of Visible Light
Length of Day
Tomorrow will be .
, % of the Moon is Illuminated

Today's Extremes

State Highs State Lows

Community

WunderPhotos

Upload Photos

1,815,428 photos uploaded!

WunderBlogs® & News

Nearby

Air Quality

  Air Quality AQ Index Pollutant
Not available.

Snow Depth

Station Depth Elevation

Earthquake Activity

City Distance Mag. Time & Date
Minimum magnitude displayed is 2.5.

Coastal Water Temperatures

Place Temperature

Stations

Nearby Weather Stations

Station Location Temp. Windchill Dew Point Humidity Wind Precip. Elev Updated Type